• Join FlightAware (Why Join?)
  • Login
  • US Flag 
03:27AM EST


 

Airport Tracker/Info


-or-


 

Live Flight TrackerFlight Track Log ✈ N970SJ ✈ 03-May-2013 ✈ KTEB - KOMA

Flight Track Log - Related Links

Times and Time Zones

All times are in EDT time to prevent confusion due to time zone crossing. See the N970SJ flight status page for this flight to view local times or setup timezone preferences in your user account.

Time Position Orientation Groundspeed Altitude Reporting Facility
EDT Latitude Longitude Course Direction KTS MPH feet Rate Location/Type
03:18PM 40.8167 -74.1500 252° West 200 230 1,600  Level New York TRACON
03:19PM 40.8000 -74.2167 252° West 213 245 2,800 1,680 Climbing New York TRACON
03:20PM 40.8000 -74.3000 270° West 251 289 4,900 1,920 Climbing New York TRACON
03:22PM 40.8150 -74.5028 276° West 290 334 8,700 1,680 Climbing New York Center
03:23PM 40.8289 -74.5911 282° West 290 334 10,100 1,560 Climbing New York Center
03:24PM 40.8497 -74.7186 282° West 306 352 11,800 1,440 Climbing New York Center
03:25PM 40.8689 -74.8350 282° West 346 398 13,100 1,380 Climbing New York Center
03:26PM 40.8892 -74.9681 281° West 372 428 14,700 1,620 Climbing New York Center
03:27PM 40.9106 -75.1203 281° West 377 434 16,300 1,560 Climbing New York Center
03:28PM 40.8969 -75.2650 263° West 382 440 17,800 1,200 Climbing New York Center
03:29PM 40.8686 -75.4058 255° West 400 460 18,800 1,380 Climbing New York Center
03:30PM 40.8342 -75.5350 251° West 411 473 20,600 2,100 Climbing New York Center
03:31PM 40.7989 -75.6861 253° West 416 479 22,900 2,220 Climbing New York Center
03:32PM 40.7636 -75.8342 253° West 421 484 25,000 2,040 Climbing New York Center
03:33PM 40.7228 -76.0011 252° West 426 490 27,100 1,680 Climbing New York Center
03:34PM 40.6844 -76.1597 252° West 442 509 28,500 1,620 Climbing New York Center
03:35PM 40.6769 -76.3233 267° West 447 514 30,400 1,860 Climbing New York Center
03:36PM 40.6983 -76.4864 280° West 440 506 32,200 1,920 Climbing New York Center
03:37PM 40.7219 -76.6419 281° West 445 512 34,300 1,920 Climbing New York Center
03:38PM 40.7456 -76.7972 281° West 445 512 36,100 1,620 Climbing New York Center
03:39PM 40.7689 -76.9500 281° West 439 505 37,600 1,440 Climbing New York Center
03:40PM 40.7900 -77.1028 280° West 433 498 39,000 1,200 Climbing New York Center
03:41PM 40.8131 -77.2531 282° West 428 493 40,000 480 Climbing New York Center
03:42PM 40.8339 -77.4058 280° West 428 493 40,000  Level New York Center
03:45PM 40.8856 -77.7844 280° West 422 486 40,000  Level Cleveland Center
03:46PM 40.9081 -77.9428 281° West 433 498 40,000  Level Cleveland Center
03:47PM 40.9281 -78.0958 280° West 433 498 40,000  Level Cleveland Center
03:48PM 40.9503 -78.2544 281° West 428 493 40,000  Level Cleveland Center
03:49PM 40.9681 -78.4106 279° West 433 498 40,000  Level Cleveland Center
03:50PM 40.9875 -78.5667 279° West 433 498 40,000  Level Cleveland Center
03:51PM 41.0069 -78.7258 279° West 438 504 40,000  Level Cleveland Center
03:52PM 41.0258 -78.8822 279° West 438 504 40,000  Level Cleveland Center
03:53PM 41.0428 -79.0386 278° West 438 504 40,000  Level Cleveland Center
03:53PM 41.0614 -79.1953 279° West 438 504 40,000  Level Cleveland Center
03:55PM 41.0800 -79.3544 279° West 438 504 40,000  Level Cleveland Center
03:56PM 41.0983 -79.5114 279° West 438 504 40,000  Level Cleveland Center
03:57PM 41.1142 -79.6681 278° West 438 504 40,000  Level Cleveland Center
03:58PM 41.1300 -79.8333 277° West 443 510 40,000  Level Cleveland Center
03:59PM 41.1456 -79.9875 278° West 448 516 40,000  Level Cleveland Center
04:00PM 41.1650 -80.1444 279° West 442 509 40,000  Level Cleveland Center
04:01PM 41.1822 -80.3044 278° West 442 509 40,000  Level Cleveland Center
04:02PM 41.1969 -80.4644 277° West 442 509 40,000  Level Cleveland Center
04:03PM 41.2117 -80.6217 277° West 442 509 40,000  Level Cleveland Center
04:04PM 41.2281 -80.7819 278° West 442 509 40,000  Level Cleveland Center
04:05PM 41.2444 -80.9367 278° West 437 503 40,000  Level Cleveland Center
04:06PM 41.2583 -81.0969 277° West 448 516 40,000  Level Cleveland Center
04:07PM 41.2742 -81.2600 277° West 443 510 40,000  Level Cleveland Center
04:08PM 41.2939 -81.4206 279° West 443 510 40,000  Level Cleveland Center
04:09PM 41.3072 -81.5811 276° West 448 516 40,000  Level Cleveland Center
04:10PM 41.3225 -81.7417 277° West 448 516 40,000  Level Cleveland Center
04:11PM 41.3375 -81.9050 277° West 443 510 40,000  Level Cleveland Center
04:12PM 41.3522 -82.0631 277° West 443 510 40,000  Level Cleveland Center
04:13PM 41.3603 -82.2319 274° West 451 519 40,000  Level Cleveland Center
04:14PM 41.3703 -82.3928 275° West 445 512 40,000  Level Cleveland Center
04:15PM 41.3800 -82.5561 275° West 445 512 40,000  Level Cleveland Center
04:16PM 41.3875 -82.7169 274° West 445 512 40,000  Level Cleveland Center
04:17PM 41.3953 -82.8667 274° West 445 512 40,000  Level Cleveland Center
04:18PM 41.4022 -83.0303 273° West 444 511 40,000  Level Cleveland Center
04:19PM 41.4111 -83.1886 274° West 444 511 40,000  Level Cleveland Center
04:20PM 41.4200 -83.3467 274° West 444 511 40,000  Level Cleveland Center
04:21PM 41.4283 -83.5106 274° West 444 511 40,000  Level Cleveland Center
04:22PM 41.4367 -83.6742 274° West 444 511 40,000  Level Cleveland Center
04:23PM 41.4447 -83.8381 274° West 444 511 40,000  Level Cleveland Center
04:24PM 41.4503 -83.9992 273° West 444 511 40,000  Level Cleveland Center
04:25PM 41.4578 -84.1631 274° West 444 511 40,000  Level Cleveland Center
04:27PM 41.4761 -84.5400 274° West 438 504 40,000  Level Chicago Center
04:28PM 41.4825 -84.7003 273° West 434 499 40,000  Level Chicago Center
04:29PM 41.4886 -84.8583 273° West 428 493 40,000  Level Chicago Center
04:30PM 41.4939 -85.0144 273° West 422 486 40,000  Level Chicago Center
04:31PM 41.4997 -85.1664 273° West 411 473 40,000  Level Chicago Center
04:32PM 41.5028 -85.3164 272° West 402 463 40,000  Level Chicago Center
04:33PM 41.5064 -85.4692 272° West 403 464 40,000  Level Chicago Center
04:34PM 41.5125 -85.6192 273° West 401 461 40,000  Level Chicago Center
04:35PM 41.5178 -85.7978 272° West 399 459 40,000  Level Chicago Center
04:36PM 41.5219 -85.9458 272° West 398 458 40,000  Level Chicago Center
04:37PM 41.5256 -86.0958 272° West 402 463 40,000  Level Chicago Center
04:38PM 41.5283 -86.2469 271° West 405 466 40,000  Level Chicago Center
04:39PM 41.5322 -86.3981 272° West 406 467 40,000  Level Chicago Center
04:40PM 41.5333 -86.5497 271° West 409 471 40,000  Level Chicago Center
04:41PM 41.5361 -86.7328 271° West 421 484 40,000  Level Chicago Center
04:42PM 41.5386 -86.8878 271° West 420 483 40,000  Level Chicago Center
04:43PM 41.5406 -87.0431 271° West 420 483 40,000  Level Chicago Center
04:44PM 41.5408 -87.1989 270° West 421 484 40,000  Level Chicago Center
04:45PM 41.5425 -87.3894 271° West 427 491 40,000  Level Chicago Center
04:46PM 41.5442 -87.5475 271° West 430 495 40,000  Level Chicago Center
04:47PM 41.5456 -87.7061 271° West 432 497 40,000  Level Chicago Center
04:48PM 41.5458 -87.8633 270° West 429 494 40,000  Level Chicago Center
04:50PM 41.5456 -88.0503 270° West 431 496 40,000  Level Chicago Center
04:51PM 41.5464 -88.2078 270° West 437 503 40,000  Level Chicago Center
04:52PM 41.5464 -88.3694 270° West 443 510 40,000  Level Chicago Center
04:53PM 41.5467 -88.5317 270° West 442 509 40,000  Level Chicago Center
04:54PM 41.5486 -88.7264 271° West 441 507 40,000  Level Chicago Center
04:55PM 41.5483 -88.8883 270° West 439 505 40,000  Level Chicago Center
04:56PM 41.5483 -89.0517 270° West 444 511 40,000  Level Chicago Center
04:57PM 41.5481 -89.2122 270° West 438 504 40,000  Level Chicago Center
04:58PM 41.5494 -89.3725 271° West 433 498 40,000  Level Chicago Center
04:59PM 41.5481 -89.5578 269° West 433 498 40,000  Level Chicago Center
05:00PM 41.5475 -89.7189 270° West 436 502 40,000  Level Chicago Center
05:01PM 41.5461 -89.8769 269° West 430 495 40,000  Level Chicago Center
05:02PM 41.5461 -90.0356 270° West 430 495 40,000  Level Chicago Center
05:03PM 41.5442 -90.1931 269° West 428 493 40,000  Level Chicago Center
05:04PM 41.5411 -90.3883 269° West 440 506 40,000  Level Chicago Center
05:05PM 41.5381 -90.5447 269° West 428 493 40,000  Level Chicago Center
05:06PM 41.5364 -90.7111 269° West 424 488 40,000  Level Chicago Center
05:07PM 41.5339 -90.8697 269° West 429 494 40,000  Level Chicago Center
05:08PM 41.5317 -91.0261 269° West 425 489 40,000  Level Chicago Center
05:09PM 41.5286 -91.1850 269° West 428 493 40,000  Level Chicago Center
05:10PM 41.5250 -91.3425 268° West 427 491 40,000  Level Chicago Center
05:11PM 41.5211 -91.5314 268° West 428 493 40,000  Level Chicago Center
05:12PM 41.5169 -91.6878 268° West 424 488 40,000  Level Chicago Center
05:13PM 41.5119 -91.8436 268° West 423 487 40,000 -180 Level Chicago Center
05:14PM 41.5067 -91.9983 267° West 421 484 39,700 -660 Descending Chicago Center
05:15PM 41.5008 -92.1600 267° West 434 499 38,700 -960 Descending Chicago Center
05:16PM 41.4953 -92.3281 268° West 453 521 37,800 -1,020 Descending Chicago Center
05:17PM 41.4872 -92.5156 267° West 461 531 36,600 -1,020 Descending Chicago Center
05:18PM 41.4800 -92.6900 267° West 472 543 35,700 -960 Descending Chicago Center
05:19PM 41.4775 -92.7606 267° West 471 542 35,300 -1,080 Descending Minneapolis Center
05:20PM 41.4697 -92.9350 267° West 475 547 34,300 -660 Descending Minneapolis Center
05:21PM 41.4625 -93.1092 267° West 475 547 34,000 -180 Descending Minneapolis Center
05:22PM 41.4536 -93.3150 267° West 471 542 34,000  Level Minneapolis Center
05:23PM 41.4456 -93.4886 267° West 472 543 34,000 -300 Level Minneapolis Center
05:24PM 41.4400 -93.6589 268° West 467 537 33,500 -1,020 Descending Minneapolis Center
05:25PM 41.4489 -93.8372 274° West 482 555 32,000 -1,560 Descending Minneapolis Center
05:26PM 41.4603 -94.0156 275° West 486 559 30,300 -2,040 Descending Minneapolis Center
05:27PM 41.4717 -94.2314 274° West 490 564 27,900 -2,160 Descending Minneapolis Center
05:28PM 41.4786 -94.3933 273° West 476 548 25,900 -2,100 Descending Minneapolis Center
05:29PM 41.4875 -94.5550 274° West 448 516 23,700 -2,100 Descending Minneapolis Center
05:30PM 41.4936 -94.7083 273° West 423 487 21,600 -1,920 Descending Minneapolis Center
05:31PM 41.5003 -94.8497 274° West 388 447 19,800 -1,980 Descending Minneapolis Center
05:32PM 41.5164 -94.9858 279° West 348 400 18,100 -2,040 Descending Minneapolis Center
05:32PM 41.5069 -95.0064 238° Southwest 354 407 17,700 -1,680 Descending Minneapolis Center
05:33PM 41.5214 -95.1133 280° West 343 395 16,400 -1,560 Descending Minneapolis Center
05:33PM 41.5136 -95.1331 242° Southwest 345 397 16,100 -780 Descending Minneapolis Center
05:34PM 41.5086 -95.2236 266° West 331 381 15,700 -840 Descending Minneapolis Center
05:34PM 41.4933 -95.2500 232° Southwest 330 380 15,300 -1,740 Descending Minneapolis Center
05:35PM 41.4831 -95.3383 261° West 326 375 14,000 -1,860 Descending Minneapolis Center
05:35PM 41.4692 -95.3667 237° Southwest 328 377 13,400 -2,100 Descending Minneapolis Center
05:36PM 41.4583 -95.4611 261° West 320 368 11,700 -2,280 Descending Minneapolis Center
05:36PM 41.4469 -95.4800 231° Southwest 323 372 11,100 -2,280 Descending Minneapolis Center
05:37PM 41.4322 -95.5700 258° West 310 357 9,400 -2,160 Descending Minneapolis Center
05:37PM 41.4231 -95.5906 239° Southwest 317 365 8,900 -1,980 Descending Minneapolis Center
05:38PM 41.4075 -95.6647 254° West 293 337 7,600 -1,980 Descending Minneapolis Center
05:38PM 41.3942 -95.6911 236° Southwest 305 351 6,900 -2,040 Descending Minneapolis Center
05:39PM 41.3489 -95.7272 211° Southwest 305 351 5,600 -2,100 Descending Minneapolis Center
05:39PM 41.3067 -95.6936 149° Southeast 307 353 4,800 -1,380 Descending Minneapolis Center
05:40PM 41.2717 -95.6697 153° Southeast 296 341 4,200 -780 Descending Minneapolis Center
05:40PM 41.2375 -95.6378 145° Southeast 298 343 4,000 -420 Descending Minneapolis Center
05:41PM 41.2028 -95.6392 182° South 258 297 3,800 -540 Descending Minneapolis Center
05:41PM 41.1694 -95.6428 185° South 264 304 3,500 -420 Descending Minneapolis Center
05:42PM 41.1592 -95.6750 247° West 199 229 3,400 -420 Descending Minneapolis Center
05:43PM 41.1664 -95.7008 290° West 211 243 3,100 -480 Descending Minneapolis Center
05:43PM 41.1772 -95.7256 300° West 147 169 3,000 -120 Descending Minneapolis Center
05:44PM 41.1864 -95.7503 296° West 172 198 3,000  Level Minneapolis Center
05:44PM 41.1997 -95.7808 300° West 163 188 3,000  Level Minneapolis Center
05:45PM 41.2100 -95.8025 302° West 164 189 3,000 -360 Level Minneapolis Center
05:46PM 41.2425 -95.8325 325° Northwest 149 171 2,400 -840 Descending Minneapolis Center
05:46PM 41.2633 -95.8567 319° Northwest 125 144 1,900 -780 Descending Minneapolis Center
05:47PM 41.2778 -95.8661 334° Northwest 135 155 1,500 -480 Descending Minneapolis Center
05:48PM 41.3197 -95.9056 325° Northwest 134 154 1,000 -540 Descending Minneapolis Center